Time;durP1;ratioP1;P1;durP2;ratioP2;P2;SDS_P1;SDS_P2;PMS_P1;PMS_P2;Temp;Humidity;BMP_temperature;BMP_pressure;BME280_temperature;BME280_humidity;BME280_pressure;Samples;Min_cycle;Max_cycle;Signal;HPM_P1;HPM_P2
2023/05/25 00:01:23;;;;;;;;;6.25;6.00;;;;;20.87;37.78;101745.47;5015823;28;45407;-51
2023/05/25 00:03:51;;;;;;;;;5.25;5.25;;;;;20.88;37.71;101757.72;5015796;28;45862;-51
2023/05/25 00:06:17;;;;;;;;;8.00;6.50;;;;;20.87;37.80;101748.09;5015895;28;45185;-51
2023/05/25 00:08:42;;;;;;;;;7.00;6.50;;;;;20.87;37.75;101745.47;5016028;28;45324;-46
2023/05/25 00:11:07;;;;;;;;;7.00;5.75;;;;;20.86;37.95;101749.00;5015640;28;46615;-56
2023/05/25 00:13:33;;;;;;;;;6.00;6.00;;;;;20.83;38.02;101749.13;5015558;28;45264;-55
2023/05/25 00:15:58;;;;;;;;;4.00;4.00;;;;;20.86;37.78;101746.38;5016264;28;45316;-53
2023/05/25 00:18:23;;;;;;;;;8.25;6.00;;;;;20.84;37.97;101745.59;5016095;28;45625;-51
2023/05/25 00:20:52;;;;;;;;;6.00;6.00;;;;;20.84;37.95;101745.59;5015620;28;45242;-56
2023/05/25 00:23:18;;;;;;;;;9.75;7.00;;;;;20.82;37.54;101739.50;5018895;28;45360;-46
2023/05/25 00:25:43;;;;;;;;;6.00;6.00;;;;;20.84;38.02;101745.59;5019078;28;45287;-57
2023/05/25 00:28:10;;;;;;;;;7.00;7.00;;;;;20.82;37.76;101747.41;5019410;28;45855;-57
2023/05/25 00:30:35;;;;;;;;;7.00;7.00;;;;;20.82;37.93;101742.16;5018860;28;45620;-54
2023/05/25 00:33:01;;;;;;;;;9.33;4.33;;;;;20.82;38.23;101742.16;5018149;28;59161;-55
2023/05/25 00:35:27;;;;;;;;;7.00;7.00;;;;;20.80;37.84;101734.31;5019235;28;45311;-57
2023/05/25 00:37:52;;;;;;;;;8.50;6.75;;;;;20.82;37.88;101739.50;5018979;28;45329;-56
2023/05/25 00:40:18;;;;;;;;;6.00;6.00;;;;;20.82;37.98;101739.50;5018651;28;45494;-53
2023/05/25 00:42:44;;;;;;;;;8.00;7.50;;;;;20.82;38.23;101739.50;5018656;28;45835;-58
2023/05/25 00:45:10;;;;;;;;;8.00;7.00;;;;;20.81;38.42;101741.31;5017491;28;45363;-53
2023/05/25 00:47:38;;;;;;;;;7.00;7.00;;;;;20.80;38.32;101744.88;5018928;28;45473;-53
2023/05/25 00:50:07;;;;;;;;;8.75;6.25;;;;;20.81;38.00;101737.81;5017874;28;45367;-57
2023/05/25 00:52:33;;;;;;;;;7.00;5.50;;;;;20.80;38.11;101741.34;5018467;28;45913;-57
2023/05/25 00:55:01;;;;;;;;;7.00;7.00;;;;;20.79;38.46;101744.91;5018918;28;45379;-52
2023/05/25 00:57:28;;;;;;;;;6.00;5.00;;;;;20.81;38.22;101748.34;5019137;28;45312;-54
2023/05/25 00:59:56;;;;;;;;;7.00;6.00;;;;;20.79;38.26;101740.50;5018434;28;46371;-53
2023/05/25 01:02:23;;;;;;;;;7.75;6.00;;;;;20.79;38.04;101743.16;5018427;28;45303;-49
2023/05/25 01:04:52;;;;;;;;;7.00;7.00;;;;;20.78;38.49;101746.69;5033808;28;45356;-51
2023/05/25 01:07:24;;;;;;;;;7.75;7.00;;;;;20.78;38.43;101743.22;5018548;28;45378;-49
2023/05/25 01:09:57;;;;;;;;;10.00;8.00;;;;;20.79;38.05;101739.63;5018271;28;46631;-46
2023/05/25 01:12:25;;;;;;;;;7.50;5.75;;;;;20.78;38.47;101737.94;5018323;28;45431;-47
2023/05/25 01:14:52;;;;;;;;;10.50;6.00;;;;;20.78;38.17;101736.16;5018310;28;45371;-49
2023/05/25 01:17:19;;;;;;;;;8.25;8.25;;;;;20.74;38.55;101731.06;5018408;28;45497;-48
2023/05/25 01:19:44;;;;;;;;;7.75;6.75;;;;;20.78;38.48;101736.16;5017986;28;46517;-46
2023/05/25 01:22:22;;;;;;;;;9.00;7.25;;;;;20.76;38.64;101732.72;5018131;28;45280;-46
2023/05/25 01:24:52;;;;;;;;;11.25;7.75;;;;;20.77;38.47;101733.59;5018067;28;45463;-45
2023/05/25 01:27:29;;;;;;;;;5.50;5.50;;;;;20.74;38.41;101731.06;5018396;28;45386;-48
2023/05/25 01:29:57;;;;;;;;;7.00;7.00;;;;;20.73;38.74;101738.09;5016686;28;48116;-46
2023/05/25 01:32:23;;;;;;;;;8.50;6.75;;;;;20.73;38.47;101739.88;5016569;28;45298;-46
2023/05/25 01:34:50;;;;;;;;;6.50;5.75;;;;;20.72;38.48;101732.88;5017332;28;45337;-47
2023/05/25 01:37:18;;;;;;;;;6.00;6.00;;;;;20.71;38.80;101739.94;5018384;28;45473;-49
2023/05/25 01:39:43;;;;;;;;;7.25;7.25;;;;;20.71;38.55;101745.22;5017755;28;47281;-45
2023/05/25 01:42:09;;;;;;;;;7.00;6.00;;;;;20.70;38.68;101738.22;5017695;28;45291;-45
2023/05/25 01:44:36;;;;;;;;;9.25;6.00;;;;;20.70;38.58;101744.34;5017796;28;45319;-45
2023/05/25 01:47:15;;;;;;;;;5.50;5.50;;;;;20.69;38.48;101742.63;5018325;28;45254;-45
2023/05/25 01:49:48;;;;;;;;;8.50;7.50;;;;;20.70;38.65;101741.72;5017566;28;46225;-47
2023/05/25 01:52:27;;;;;;;;;7.00;5.00;;;;;20.69;38.55;101742.63;5017795;28;45661;-47
2023/05/25 01:55:00;;;;;;;;;7.50;7.00;;;;;20.68;38.94;101743.53;5017717;28;45316;-48
2023/05/25 01:57:28;;;;;;;;;8.25;8.25;;;;;20.68;38.94;101751.44;5017932;28;45371;-50
2023/05/25 02:00:01;;;;;;;;;8.25;5.75;;;;;20.69;39.16;101747.06;5017422;28;45735;-52
2023/05/25 02:02:27;;;;;;;;;6.00;6.00;;;;;20.70;39.23;101748.78;5016090;28;45925;-46
2023/05/25 02:04:56;;;;;;;;;7.25;7.00;;;;;20.69;39.27;101754.97;5017544;28;45334;-45
2023/05/25 02:07:22;;;;;;;;;6.50;5.25;;;;;20.67;38.95;101739.19;5017455;28;45676;-46
2023/05/25 02:09:47;;;;;;;;;5.25;5.25;;;;;20.69;39.02;101753.16;5017446;28;46482;-46
2023/05/25 02:12:12;;;;;;;;;7.25;5.75;;;;;20.73;38.72;101751.25;5017362;28;45219;-50
2023/05/25 02:14:37;;;;;;;;;6.75;4.00;;;;;20.76;38.70;101752.97;5017397;28;45386;-48
2023/05/25 02:17:03;;;;;;;;;6.33;4.67;;;;;20.78;38.98;101759.03;5017217;28;53799;-50
2023/05/25 02:19:29;;;;;;;;;5.50;5.50;;;;;20.79;38.81;101758.06;5017113;28;46162;-48
2023/05/25 02:21:54;;;;;;;;;5.50;5.50;;;;;20.81;38.88;101758.88;5017083;28;45213;-47
2023/05/25 02:24:23;;;;;;;;;7.50;5.75;;;;;20.81;38.69;101756.25;5032560;28;45725;-49
2023/05/25 02:26:49;;;;;;;;;5.00;5.00;;;;;20.84;38.58;101754.31;5017431;28;45474;-51
2023/05/25 02:29:15;;;;;;;;;8.00;5.00;;;;;20.85;38.63;101763.94;5016993;28;45444;-54
2023/05/25 02:31:40;;;;;;;;;5.50;5.25;;;;;20.84;38.58;101764.88;5016952;28;45470;-51
2023/05/25 02:34:06;;;;;;;;;6.75;5.25;;;;;20.86;38.48;101764.81;5017429;28;45316;-52
2023/05/25 02:36:33;;;;;;;;;6.25;6.25;;;;;20.87;38.79;101766.53;5017094;28;45663;-52
2023/05/25 02:38:59;;;;;;;;;6.00;5.25;;;;;20.86;38.32;101770.09;5032105;28;47405;-55
2023/05/25 02:41:25;;;;;;;;;7.00;7.00;;;;;20.88;38.40;101778.81;5016876;28;45212;-56
2023/05/25 02:43:50;;;;;;;;;7.75;5.00;;;;;20.89;38.70;101783.13;5016942;28;45347;-56
2023/05/25 02:46:16;;;;;;;;;5.75;5.00;;;;;20.89;38.53;101777.84;5016018;28;45228;-47
2023/05/25 02:48:42;;;;;;;;;5.25;5.25;;;;;20.89;38.47;101780.47;5016637;28;46438;-45
2023/05/25 02:51:07;;;;;;;;;7.75;6.00;;;;;20.89;38.53;101780.47;5017056;28;45883;-46
2023/05/25 02:53:32;;;;;;;;;6.00;5.00;;;;;20.91;38.63;101777.81;5017068;28;45362;-46
2023/05/25 02:55:59;;;;;;;;;4.50;4.50;;;;;20.90;38.78;101782.19;5017065;28;45581;-46
2023/05/25 02:58:24;;;;;;;;;10.50;6.50;;;;;20.91;38.54;101773.38;5016509;28;46070;-46
2023/05/25 03:00:50;;;;;;;;;5.00;5.00;;;;;20.91;38.54;101786.56;5016588;28;45350;-51
2023/05/25 03:03:16;;;;;;;;;6.50;6.50;;;;;20.88;38.41;101778.81;5016686;28;45434;-52
2023/05/25 03:05:41;;;;;;;;;7.00;5.00;;;;;20.90;38.77;101776.94;5016946;28;45492;-48
2023/05/25 03:08:06;;;;;;;;;10.75;6.00;;;;;20.91;38.59;101777.81;5016659;28;45300;-49
2023/05/25 03:10:32;;;;;;;;;6.25;5.00;;;;;20.87;38.80;101771.81;5016580;28;45345;-46
2023/05/25 03:12:57;;;;;;;;;5.00;4.75;;;;;20.90;38.54;101776.94;5031786;28;45380;-49
2023/05/25 03:15:22;;;;;;;;;5.75;5.00;;;;;20.91;38.54;101783.91;5016686;28;45241;-46
2023/05/25 03:17:48;;;;;;;;;4.50;4.50;;;;;20.92;38.77;101784.78;5016280;28;46430;-46
2023/05/25 03:20:15;;;;;;;;;5.25;4.75;;;;;20.92;38.86;101784.78;5014989;28;45903;-46
2023/05/25 03:22:41;;;;;;;;;5.25;5.25;;;;;20.91;38.64;101789.19;5016559;28;45264;-46
2023/05/25 03:25:07;;;;;;;;;7.75;5.50;;;;;20.91;39.00;101794.47;5016803;28;45569;-51
2023/05/25 03:27:32;;;;;;;;;4.75;4.75;;;;;20.91;38.76;101789.19;5014945;28;46321;-46
2023/05/25 03:29:58;;;;;;;;;4.00;4.00;;;;;20.92;38.96;101797.97;5016285;28;45341;-48
2023/05/25 03:32:23;;;;;;;;;6.25;5.00;;;;;20.92;38.45;101795.34;5016241;28;45454;-48
2023/05/25 03:34:48;;;;;;;;;8.00;6.50;;;;;20.93;38.62;101804.97;5016337;28;45344;-47
2023/05/25 03:37:14;;;;;;;;;4.50;4.50;;;;;20.92;38.51;101812.00;5016080;28;47820;-49
2023/05/25 03:39:39;;;;;;;;;6.50;4.00;;;;;20.93;38.70;101812.88;5016483;28;45373;-47
2023/05/25 03:42:05;;;;;;;;;5.75;5.75;;;;;20.93;38.44;101812.88;5016399;28;46696;-50
2023/05/25 03:44:30;;;;;;;;;8.25;6.50;;;;;20.92;38.71;101812.00;5016494;28;45303;-49
2023/05/25 03:46:56;;;;;;;;;6.00;5.50;;;;;20.93;38.76;101813.72;5016110;28;46236;-50
2023/05/25 03:49:21;;;;;;;;;6.00;5.00;;;;;20.92;39.02;101821.69;5015581;28;52187;-52
2023/05/25 03:51:46;;;;;;;;;5.00;5.00;;;;;20.92;39.02;101825.16;5015865;28;45424;-52
2023/05/25 03:54:12;;;;;;;;;4.00;4.00;;;;;20.92;38.89;101819.91;5016068;28;45656;-47
2023/05/25 03:56:37;;;;;;;;;5.00;4.00;;;;;20.92;38.76;101822.53;5017211;28;47240;-48
2023/05/25 03:59:02;;;;;;;;;6.75;5.00;;;;;20.91;38.79;101815.53;5019401;28;45362;-52
2023/05/25 04:01:28;;;;;;;;;4.33;4.00;;;;;20.92;39.05;101819.91;5017669;28;58369;-52
2023/05/25 04:03:55;;;;;;;;;3.00;3.00;;;;;20.94;38.69;101811.94;5019710;28;45587;-52
2023/05/25 04:06:24;;;;;;;;;6.25;5.00;;;;;20.94;38.75;101819.84;5019258;28;45635;-54
2023/05/25 04:08:50;;;;;;;;;3.75;3.75;;;;;20.92;38.67;101809.34;5019243;28;45444;-53
2023/05/25 04:11:15;;;;;;;;;6.00;4.75;;;;;20.91;38.71;101812.91;5019282;28;45419;-53
2023/05/25 04:13:41;;;;;;;;;5.25;4.25;;;;;20.93;38.83;101811.06;5019768;28;45552;-55
2023/05/25 04:16:06;;;;;;;;;4.00;4.00;;;;;20.93;38.78;101811.06;5019299;28;45579;-50
2023/05/25 04:18:32;;;;;;;;;7.00;5.00;;;;;20.93;38.63;101813.72;5019130;28;45315;-55
2023/05/25 04:20:58;;;;;;;;;6.50;4.75;;;;;20.93;38.50;101808.44;5019138;28;45484;-56
2023/05/25 04:23:23;;;;;;;;;5.00;4.00;;;;;20.94;38.54;101809.31;5019329;28;45583;-55
2023/05/25 04:25:50;;;;;;;;;4.50;4.50;;;;;20.94;38.59;101811.94;5018837;28;46645;-53
2023/05/25 04:28:16;;;;;;;;;5.00;5.00;;;;;20.94;38.92;101810.16;5018912;28;45793;-57
2023/05/25 04:30:41;;;;;;;;;5.00;5.00;;;;;20.94;38.75;101812.78;5019360;28;45421;-57
2023/05/25 04:33:10;;;;;;;;;5.00;5.00;;;;;20.94;39.10;101820.69;5018927;28;45501;-53
2023/05/25 04:35:35;;;;;;;;;7.00;4.50;;;;;20.94;39.09;101820.69;5018821;28;46499;-58
2023/05/25 04:38:01;;;;;;;;;7.25;5.25;;;;;20.95;39.14;101826.81;5018856;28;45259;-57
2023/05/25 04:40:27;;;;;;;;;10.00;7.00;;;;;20.95;39.21;101817.13;5018854;28;45225;-56
2023/05/25 04:42:52;;;;;;;;;10.75;7.25;;;;;20.94;38.80;101825.97;5019057;28;45600;-56
2023/05/25 04:45:20;;;;;;;;;9.25;7.50;;;;;20.96;39.27;101823.25;5018587;28;45308;-44
2023/05/25 04:47:46;;;;;;;;;11.75;10.75;;;;;20.96;39.30;101823.25;5018657;28;45351;-51
2023/05/25 04:50:12;;;;;;;;;13.75;12.25;;;;;20.95;39.31;101832.94;5018883;28;45421;-50
2023/05/25 04:52:38;;;;;;;;;12.25;12.00;;;;;20.97;39.58;101824.97;5018988;28;45492;-46
2023/05/25 04:55:03;;;;;;;;;12.00;11.00;;;;;20.97;39.36;101830.25;5018063;28;52395;-49
2023/05/25 04:57:30;;;;;;;;;12.25;10.50;;;;;20.95;39.28;101832.94;5018496;28;45287;-48
2023/05/25 04:59:56;;;;;;;;;15.25;10.00;;;;;20.95;39.42;101832.94;5018725;28;45401;-45
2023/05/25 05:02:21;;;;;;;;;15.00;12.75;;;;;20.97;39.46;101835.50;5018613;28;45604;-49
2023/05/25 05:04:46;;;;;;;;;11.00;11.00;;;;;20.97;39.22;101831.13;5018260;28;45397;-47
2023/05/25 05:07:12;;;;;;;;;10.50;8.75;;;;;20.97;39.41;101831.13;5018524;28;45232;-47
2023/05/25 05:09:37;;;;;;;;;9.00;9.00;;;;;20.96;39.52;101824.13;5017589;28;45261;-49
2023/05/25 05:12:03;;;;;;;;;14.25;12.00;;;;;20.98;39.38;101835.47;5018586;28;45506;-45
2023/05/25 05:14:28;;;;;;;;;11.75;10.75;;;;;20.99;39.54;101831.03;5017910;28;46511;-44
2023/05/25 05:16:53;;;;;;;;;10.00;10.00;;;;;20.98;39.78;101848.66;5018207;28;45387;-46
2023/05/25 05:19:19;;;;;;;;;10.50;10.00;;;;;20.98;39.52;101848.66;5018372;28;45359;-48
2023/05/25 05:21:44;;;;;;;;;10.25;9.25;;;;;20.98;39.52;101850.41;5018597;28;45586;-46
2023/05/25 05:24:10;;;;;;;;;11.50;9.25;;;;;20.97;39.56;101857.47;5018040;28;45349;-51
2023/05/25 05:26:37;;;;;;;;;9.75;9.50;;;;;20.98;39.28;101859.19;5018025;28;45245;-47
2023/05/25 05:29:03;;;;;;;;;10.00;9.00;;;;;20.98;39.20;101864.47;5018036;28;45340;-50
2023/05/25 05:31:28;;;;;;;;;7.50;6.00;;;;;20.99;39.72;101863.53;5018233;28;45311;-47
2023/05/25 05:33:54;;;;;;;;;10.50;8.00;;;;;20.99;39.32;101867.94;5017270;28;46500;-47
2023/05/25 05:36:19;;;;;;;;;8.00;8.00;;;;;21.00;39.54;101872.28;5017892;28;45394;-52
2023/05/25 05:38:45;;;;;;;;;10.00;8.50;;;;;20.98;39.46;101864.47;5018316;28;45658;-49
2023/05/25 05:41:14;;;;;;;;;8.75;7.75;;;;;21.00;39.12;101867.03;5018062;28;45373;-49
2023/05/25 05:43:42;;;;;;;;;7.50;6.00;;;;;21.01;39.50;101866.09;5017668;28;47330;-48
2023/05/25 05:46:09;;;;;;;;;7.00;7.00;;;;;21.01;39.59;101872.22;5017638;28;45323;-48
2023/05/25 05:48:35;;;;;;;;;8.75;7.75;;;;;21.01;39.71;101880.13;5017660;28;45314;-45
2023/05/25 05:51:01;;;;;;;;;6.50;6.50;;;;;20.99;39.32;101876.72;5018052;28;45534;-46
2023/05/25 05:53:27;;;;;;;;;9.25;8.00;;;;;21.01;39.61;101879.28;5017660;28;46372;-47
2023/05/25 05:55:57;;;;;;;;;9.67;7.00;;;;;21.02;39.13;101891.53;5016802;28;64701;-49
2023/05/25 05:58:25;;;;;;;;;6.50;6.50;;;;;21.01;39.59;101877.50;5017706;28;45390;-50
2023/05/25 06:00:50;;;;;;;;;10.75;9.00;;;;;21.00;39.44;101888.94;5017678;28;45618;-48
2023/05/25 06:03:16;;;;;;;;;6.25;6.00;;;;;21.03;39.24;101900.28;5016520;28;46874;-55
2023/05/25 06:05:41;;;;;;;;;6.75;5.50;;;;;21.03;39.40;101892.38;5032773;28;45319;-54
2023/05/25 06:08:08;;;;;;;;;7.75;6.00;;;;;21.05;39.25;101901.09;5017516;28;45203;-54
2023/05/25 06:10:34;;;;;;;;;8.00;6.75;;;;;21.04;39.29;101896.75;5017523;28;45504;-52
2023/05/25 06:12:59;;;;;;;;;5.25;4.50;;;;;21.04;39.46;101897.63;5017266;28;45969;-50
2023/05/25 06:15:25;;;;;;;;;8.00;8.00;;;;;21.05;39.62;101901.09;5017136;28;45323;-45
2023/05/25 06:17:50;;;;;;;;;7.00;7.00;;;;;21.05;39.67;101894.06;5017346;28;45238;-49
2023/05/25 06:20:15;;;;;;;;;6.25;6.25;;;;;21.06;39.36;101902.81;5017537;28;45235;-47
2023/05/25 06:22:41;;;;;;;;;7.00;7.00;;;;;21.06;39.32;101908.09;5016932;28;50646;-46
2023/05/25 06:25:09;;;;;;;;;5.50;5.50;;;;;21.06;39.28;101900.19;5017034;28;45559;-47
2023/05/25 06:27:34;;;;;;;;;7.00;5.00;;;;;21.07;39.30;101907.16;5017191;28;45263;-50
2023/05/25 06:30:00;;;;;;;;;6.50;4.50;;;;;21.07;39.24;101904.53;5017332;28;45264;-56
2023/05/25 06:32:25;;;;;;;;;4.75;4.75;;;;;21.08;39.58;101917.63;5016886;28;46074;-56
2023/05/25 06:34:50;;;;;;;;;7.25;5.00;;;;;21.07;39.49;101910.66;5017096;28;45471;-50
2023/05/25 06:37:16;;;;;;;;;6.00;6.00;;;;;21.09;39.47;101913.25;5017522;28;45533;-47
2023/05/25 06:39:42;;;;;;;;;0.00;0.00;;;;;21.09;39.15;101916.72;5016018;28;45230;-46
2023/05/25 06:42:08;;;;;;;;;5.25;4.75;;;;;21.10;39.12;101914.97;5016671;28;46392;-54
2023/05/25 06:44:33;;;;;;;;;4.25;4.25;;;;;21.11;39.69;101908.78;5016744;28;45264;-47
2023/05/25 06:46:59;;;;;;;;;5.50;5.50;;;;;21.11;39.40;101911.41;5017020;28;45213;-47
2023/05/25 06:49:24;;;;;;;;;6.75;6.00;;;;;21.11;39.29;101906.97;5017033;28;45213;-47
2023/05/25 06:51:50;;;;;;;;;8.00;5.00;;;;;21.11;39.08;101898.22;5016966;28;45288;-46
2023/05/25 06:54:15;;;;;;;;;6.00;5.00;;;;;21.13;39.17;101910.41;5016480;28;45378;-46
2023/05/25 06:56:41;;;;;;;;;7.00;6.00;;;;;21.11;39.20;101906.13;5016719;28;45471;-46
2023/05/25 06:59:06;;;;;;;;;5.25;5.25;;;;;21.14;39.26;101904.22;5016891;28;45533;-49
2023/05/25 07:01:31;;;;;;;;;1.25;1.00;;;;;21.12;39.47;101898.16;5016517;28;46580;-47
2023/05/25 07:03:57;;;;;;;;;4.00;4.00;;;;;21.15;39.39;101892.75;5016090;28;57320;-49
2023/05/25 07:06:22;;;;;;;;;7.50;5.00;;;;;21.15;39.12;101887.50;5016783;28;45329;-47
2023/05/25 07:08:47;;;;;;;;;6.00;5.75;;;;;21.15;39.39;101898.03;5017077;28;45280;-50
2023/05/25 07:11:13;;;;;;;;;5.00;5.00;;;;;21.16;39.31;101902.38;5016351;28;45374;-50
2023/05/25 07:13:39;;;;;;;;;5.75;5.75;;;;;21.17;39.02;101900.59;5014985;28;45280;-47
2023/05/25 07:16:04;;;;;;;;;4.50;4.50;;;;;21.18;39.36;101904.94;5015208;28;45357;-48
2023/05/25 07:18:30;;;;;;;;;6.00;6.00;;;;;21.18;39.05;101910.22;5016647;28;45496;-50
2023/05/25 07:20:55;;;;;;;;;4.00;4.00;;;;;21.20;39.38;101910.16;5016141;28;45398;-46
2023/05/25 07:23:20;;;;;;;;;6.00;5.25;;;;;21.21;39.00;101909.22;5016104;28;55455;-47
2023/05/25 07:25:45;;;;;;;;;4.50;4.25;;;;;21.20;39.27;101911.03;5015970;28;50980;-47
2023/05/25 07:28:11;;;;;;;;;7.00;5.00;;;;;21.23;38.92;101913.50;5016301;28;45309;-49
2023/05/25 07:30:36;;;;;;;;;5.00;5.00;;;;;21.22;39.18;101908.31;5015971;28;45632;-56
2023/05/25 07:33:02;;;;;;;;;7.25;4.00;;;;;21.24;38.90;101911.75;5019178;28;45223;-48
2023/05/25 07:35:27;;;;;;;;;6.00;6.00;;;;;21.24;39.25;101907.31;5018404;28;45250;-49
2023/05/25 07:38:01;;;;;;;;;4.50;4.25;;;;;21.25;39.05;101911.69;5020227;28;45232;-47
2023/05/25 07:40:26;;;;;;;;;4.00;4.00;;;;;21.25;38.73;101909.03;5019403;28;45679;-48
2023/05/25 07:42:52;;;;;;;;;6.00;4.00;;;;;21.27;38.77;101912.47;5019988;28;45395;-46
2023/05/25 07:45:17;;;;;;;;;4.50;4.50;;;;;21.26;38.75;101907.28;5019844;28;45340;-54
2023/05/25 07:47:43;;;;;;;;;6.25;4.50;;;;;21.26;38.99;101908.13;5019681;28;45163;-51
2023/05/25 07:50:09;;;;;;;;;5.50;5.00;;;;;21.27;38.79;101901.09;5019274;28;49143;-50
2023/05/25 07:52:34;;;;;;;;;6.50;5.00;;;;;21.27;38.42;101907.19;5019373;28;45805;-52
2023/05/25 07:54:59;;;;;;;;;6.25;5.25;;;;;21.29;38.53;101907.13;5019468;28;45301;-52
2023/05/25 07:57:25;;;;;;;;;6.00;5.00;;;;;21.27;38.38;101915.09;5019911;28;45445;-50
2023/05/25 07:59:51;;;;;;;;;5.25;4.00;;;;;21.28;38.50;101914.19;5019581;28;45346;-48
2023/05/25 08:02:16;;;;;;;;;5.00;4.00;;;;;21.29;38.59;101921.19;5019496;28;45314;-55
2023/05/25 08:04:41;;;;;;;;;4.00;4.00;;;;;21.29;38.47;101920.31;5019417;28;45454;-59
2023/05/25 08:07:07;;;;;;;;;5.50;4.75;;;;;21.28;38.57;101905.41;5019521;28;45505;-46
2023/05/25 08:09:32;;;;;;;;;5.00;4.00;;;;;21.29;38.13;101915.03;5018987;28;54399;-47
2023/05/25 08:11:58;;;;;;;;;6.25;4.75;;;;;21.29;38.61;101920.31;5019214;28;45393;-49
2023/05/25 08:14:24;;;;;;;;;5.00;5.00;;;;;21.29;38.51;101920.31;5019511;28;45256;-51
2023/05/25 08:16:50;;;;;;;;;4.75;4.75;;;;;21.29;38.39;101910.63;5018115;28;45394;-51
2023/05/25 08:19:15;;;;;;;;;5.00;4.00;;;;;21.29;38.59;101910.63;5019131;28;45474;-55
2023/05/25 08:21:41;;;;;;;;;6.50;3.75;;;;;21.30;38.42;101917.63;5019167;28;45489;-55
2023/05/25 08:24:07;;;;;;;;;3.50;3.50;;;;;21.31;38.39;101921.09;5019239;28;45291;-47
2023/05/25 08:26:35;;;;;;;;;3.00;3.00;;;;;21.31;38.09;101919.34;5019312;28;45204;-51
2023/05/25 08:29:04;;;;;;;;;4.00;4.00;;;;;21.33;38.23;101915.78;5018909;28;46362;-48
2023/05/25 08:31:32;;;;;;;;;4.50;4.50;;;;;21.35;38.21;101916.56;5018970;28;45786;-48
2023/05/25 08:33:59;;;;;;;;;5.25;3.00;;;;;21.35;38.19;101922.72;5018638;28;45389;-47
